sensor_id;sensor_type;location;lat;lon;timestamp;P1;durP1;ratioP1;P2;durP2;ratioP2
46815;SDS011;32787;53.316;8.670;2023-05-07T00:00:25;32.88;;;20.40;;
46815;SDS011;32787;53.316;8.670;2023-05-07T00:02:51;34.00;;;20.80;;
46815;SDS011;32787;53.316;8.670;2023-05-07T00:05:17;32.05;;;20.38;;
46815;SDS011;32787;53.316;8.670;2023-05-07T00:07:42;33.20;;;20.95;;
46815;SDS011;32787;53.316;8.670;2023-05-07T00:10:09;31.27;;;19.90;;
46815;SDS011;32787;53.316;8.670;2023-05-07T00:12:37;30.40;;;19.27;;
46815;SDS011;32787;53.316;8.670;2023-05-07T00:15:03;30.42;;;19.42;;
46815;SDS011;32787;53.316;8.670;2023-05-07T00:17:29;32.25;;;19.35;;
46815;SDS011;32787;53.316;8.670;2023-05-07T00:19:55;31.85;;;19.23;;
46815;SDS011;32787;53.316;8.670;2023-05-07T00:22:21;27.58;;;17.50;;
46815;SDS011;32787;53.316;8.670;2023-05-07T00:24:46;27.38;;;17.75;;
46815;SDS011;32787;53.316;8.670;2023-05-07T00:27:12;30.42;;;18.45;;
46815;SDS011;32787;53.316;8.670;2023-05-07T00:29:38;30.05;;;19.65;;
46815;SDS011;32787;53.316;8.670;2023-05-07T00:32:04;28.42;;;18.08;;
46815;SDS011;32787;53.316;8.670;2023-05-07T00:34:30;27.98;;;15.63;;
46815;SDS011;32787;53.316;8.670;2023-05-07T00:36:55;27.38;;;16.55;;
46815;SDS011;32787;53.316;8.670;2023-05-07T00:39:21;26.50;;;17.35;;
46815;SDS011;32787;53.316;8.670;2023-05-07T00:41:46;25.90;;;16.65;;
46815;SDS011;32787;53.316;8.670;2023-05-07T00:44:12;24.35;;;16.30;;
46815;SDS011;32787;53.316;8.670;2023-05-07T00:46:39;25.55;;;17.45;;
46815;SDS011;32787;53.316;8.670;2023-05-07T00:49:05;30.00;;;16.98;;
46815;SDS011;32787;53.316;8.670;2023-05-07T00:51:32;29.13;;;16.92;;
46815;SDS011;32787;53.316;8.670;2023-05-07T00:53:59;28.13;;;17.17;;
46815;SDS011;32787;53.316;8.670;2023-05-07T00:56:25;27.13;;;17.98;;
46815;SDS011;32787;53.316;8.670;2023-05-07T00:58:51;26.23;;;15.48;;
46815;SDS011;32787;53.316;8.670;2023-05-07T01:01:17;26.27;;;17.02;;
46815;SDS011;32787;53.316;8.670;2023-05-07T01:03:43;28.70;;;18.30;;
46815;SDS011;32787;53.316;8.670;2023-05-07T01:06:09;29.20;;;18.50;;
46815;SDS011;32787;53.316;8.670;2023-05-07T01:08:37;27.60;;;17.70;;
46815;SDS011;32787;53.316;8.670;2023-05-07T01:11:04;29.93;;;18.23;;
46815;SDS011;32787;53.316;8.670;2023-05-07T01:13:31;29.73;;;18.50;;
46815;SDS011;32787;53.316;8.670;2023-05-07T01:15:57;28.97;;;18.67;;
46815;SDS011;32787;53.316;8.670;2023-05-07T01:18:23;27.77;;;17.48;;
46815;SDS011;32787;53.316;8.670;2023-05-07T01:20:50;26.75;;;17.75;;
46815;SDS011;32787;53.316;8.670;2023-05-07T01:23:16;29.00;;;18.05;;
46815;SDS011;32787;53.316;8.670;2023-05-07T01:25:43;29.05;;;18.40;;
46815;SDS011;32787;53.316;8.670;2023-05-07T01:28:08;28.13;;;18.33;;
46815;SDS011;32787;53.316;8.670;2023-05-07T01:30:34;30.02;;;19.05;;
46815;SDS011;32787;53.316;8.670;2023-05-07T01:33:08;28.73;;;18.85;;
46815;SDS011;32787;53.316;8.670;2023-05-07T01:35:39;30.83;;;18.48;;
46815;SDS011;32787;53.316;8.670;2023-05-07T01:38:08;30.30;;;17.75;;
46815;SDS011;32787;53.316;8.670;2023-05-07T01:40:34;30.15;;;18.83;;
46815;SDS011;32787;53.316;8.670;2023-05-07T01:43:00;36.22;;;19.70;;
46815;SDS011;32787;53.316;8.670;2023-05-07T01:45:27;29.65;;;19.70;;
46815;SDS011;32787;53.316;8.670;2023-05-07T01:47:53;27.60;;;18.27;;
46815;SDS011;32787;53.316;8.670;2023-05-07T01:50:20;27.88;;;16.98;;
46815;SDS011;32787;53.316;8.670;2023-05-07T01:52:46;26.42;;;17.55;;
46815;SDS011;32787;53.316;8.670;2023-05-07T01:55:14;25.67;;;15.70;;
46815;SDS011;32787;53.316;8.670;2023-05-07T01:57:40;27.38;;;17.50;;
46815;SDS011;32787;53.316;8.670;2023-05-07T02:00:06;27.08;;;16.83;;
46815;SDS011;32787;53.316;8.670;2023-05-07T02:02:33;24.83;;;15.55;;
46815;SDS011;32787;53.316;8.670;2023-05-07T02:04:59;23.90;;;15.55;;
46815;SDS011;32787;53.316;8.670;2023-05-07T02:07:26;24.90;;;17.02;;
46815;SDS011;32787;53.316;8.670;2023-05-07T02:09:51;26.67;;;16.35;;
46815;SDS011;32787;53.316;8.670;2023-05-07T02:12:17;26.20;;;16.27;;
46815;SDS011;32787;53.316;8.670;2023-05-07T02:14:43;27.77;;;16.23;;
46815;SDS011;32787;53.316;8.670;2023-05-07T02:17:08;28.42;;;18.02;;
46815;SDS011;32787;53.316;8.670;2023-05-07T02:19:34;28.35;;;17.13;;
46815;SDS011;32787;53.316;8.670;2023-05-07T02:22:00;28.35;;;17.63;;
46815;SDS011;32787;53.316;8.670;2023-05-07T02:24:25;30.50;;;18.20;;
46815;SDS011;32787;53.316;8.670;2023-05-07T02:26:51;26.38;;;16.35;;
46815;SDS011;32787;53.316;8.670;2023-05-07T02:29:16;27.10;;;15.60;;
46815;SDS011;32787;53.316;8.670;2023-05-07T02:31:42;28.50;;;17.05;;
46815;SDS011;32787;53.316;8.670;2023-05-07T02:34:08;28.98;;;18.05;;
46815;SDS011;32787;53.316;8.670;2023-05-07T02:36:33;28.25;;;17.17;;
46815;SDS011;32787;53.316;8.670;2023-05-07T02:38:59;31.65;;;17.27;;
46815;SDS011;32787;53.316;8.670;2023-05-07T02:41:25;29.80;;;17.75;;
46815;SDS011;32787;53.316;8.670;2023-05-07T02:43:51;27.55;;;17.90;;
46815;SDS011;32787;53.316;8.670;2023-05-07T02:46:16;27.95;;;18.00;;
46815;SDS011;32787;53.316;8.670;2023-05-07T02:48:42;27.83;;;17.52;;
46815;SDS011;32787;53.316;8.670;2023-05-07T02:51:08;29.77;;;17.45;;
46815;SDS011;32787;53.316;8.670;2023-05-07T02:53:33;30.10;;;17.30;;
46815;SDS011;32787;53.316;8.670;2023-05-07T02:55:59;29.48;;;16.38;;
46815;SDS011;32787;53.316;8.670;2023-05-07T02:58:26;29.48;;;17.38;;
46815;SDS011;32787;53.316;8.670;2023-05-07T03:00:52;27.13;;;17.15;;
46815;SDS011;32787;53.316;8.670;2023-05-07T03:03:19;26.95;;;17.05;;
46815;SDS011;32787;53.316;8.670;2023-05-07T03:05:45;25.02;;;15.55;;
46815;SDS011;32787;53.316;8.670;2023-05-07T03:08:11;31.02;;;16.48;;
46815;SDS011;32787;53.316;8.670;2023-05-07T03:10:37;28.15;;;16.42;;
46815;SDS011;32787;53.316;8.670;2023-05-07T03:13:03;26.90;;;16.52;;
46815;SDS011;32787;53.316;8.670;2023-05-07T03:15:28;28.83;;;16.13;;
46815;SDS011;32787;53.316;8.670;2023-05-07T03:17:54;25.48;;;16.35;;
46815;SDS011;32787;53.316;8.670;2023-05-07T03:20:20;25.50;;;16.27;;
46815;SDS011;32787;53.316;8.670;2023-05-07T03:22:46;27.73;;;15.95;;
46815;SDS011;32787;53.316;8.670;2023-05-07T03:25:11;26.73;;;14.88;;
46815;SDS011;32787;53.316;8.670;2023-05-07T03:27:37;27.45;;;16.15;;
46815;SDS011;32787;53.316;8.670;2023-05-07T03:30:03;27.30;;;15.23;;
46815;SDS011;32787;53.316;8.670;2023-05-07T03:32:29;24.80;;;15.38;;
46815;SDS011;32787;53.316;8.670;2023-05-07T03:34:55;24.48;;;15.07;;
46815;SDS011;32787;53.316;8.670;2023-05-07T03:37:20;24.45;;;13.77;;
46815;SDS011;32787;53.316;8.670;2023-05-07T03:39:46;27.95;;;15.63;;
46815;SDS011;32787;53.316;8.670;2023-05-07T03:42:12;26.70;;;14.90;;
46815;SDS011;32787;53.316;8.670;2023-05-07T03:44:38;22.15;;;14.00;;
46815;SDS011;32787;53.316;8.670;2023-05-07T03:47:03;26.35;;;15.20;;
46815;SDS011;32787;53.316;8.670;2023-05-07T03:49:29;24.23;;;13.77;;
46815;SDS011;32787;53.316;8.670;2023-05-07T03:51:55;23.10;;;13.88;;
46815;SDS011;32787;53.316;8.670;2023-05-07T03:54:21;26.92;;;14.65;;
46815;SDS011;32787;53.316;8.670;2023-05-07T03:56:47;24.33;;;14.63;;
46815;SDS011;32787;53.316;8.670;2023-05-07T03:59:13;25.05;;;14.98;;
46815;SDS011;32787;53.316;8.670;2023-05-07T04:01:38;26.33;;;15.18;;
46815;SDS011;32787;53.316;8.670;2023-05-07T04:04:04;23.92;;;14.07;;
46815;SDS011;32787;53.316;8.670;2023-05-07T04:06:30;22.05;;;14.30;;
46815;SDS011;32787;53.316;8.670;2023-05-07T04:08:56;21.60;;;13.80;;
46815;SDS011;32787;53.316;8.670;2023-05-07T04:11:22;22.30;;;13.15;;
46815;SDS011;32787;53.316;8.670;2023-05-07T04:13:47;20.60;;;12.55;;
46815;SDS011;32787;53.316;8.670;2023-05-07T04:16:13;22.20;;;13.05;;
46815;SDS011;32787;53.316;8.670;2023-05-07T04:18:39;18.42;;;11.95;;
46815;SDS011;32787;53.316;8.670;2023-05-07T04:21:05;19.02;;;12.48;;
46815;SDS011;32787;53.316;8.670;2023-05-07T04:23:30;21.98;;;12.38;;
46815;SDS011;32787;53.316;8.670;2023-05-07T04:25:56;20.50;;;12.88;;
46815;SDS011;32787;53.316;8.670;2023-05-07T04:28:22;21.73;;;12.27;;
46815;SDS011;32787;53.316;8.670;2023-05-07T04:30:48;23.92;;;13.48;;
46815;SDS011;32787;53.316;8.670;2023-05-07T04:33:14;19.83;;;11.82;;
46815;SDS011;32787;53.316;8.670;2023-05-07T04:35:43;21.60;;;11.95;;
46815;SDS011;32787;53.316;8.670;2023-05-07T04:38:08;20.42;;;12.77;;
46815;SDS011;32787;53.316;8.670;2023-05-07T04:40:35;20.58;;;12.73;;
46815;SDS011;32787;53.316;8.670;2023-05-07T04:43:01;22.25;;;13.32;;
46815;SDS011;32787;53.316;8.670;2023-05-07T04:45:26;18.40;;;12.35;;
46815;SDS011;32787;53.316;8.670;2023-05-07T04:47:52;21.98;;;13.23;;
46815;SDS011;32787;53.316;8.670;2023-05-07T04:50:18;22.13;;;12.93;;
46815;SDS011;32787;53.316;8.670;2023-05-07T04:52:44;17.05;;;11.18;;
46815;SDS011;32787;53.316;8.670;2023-05-07T04:55:10;20.42;;;12.13;;
46815;SDS011;32787;53.316;8.670;2023-05-07T04:57:36;19.20;;;12.90;;
46815;SDS011;32787;53.316;8.670;2023-05-07T05:00:03;18.55;;;11.82;;
46815;SDS011;32787;53.316;8.670;2023-05-07T05:02:29;18.95;;;12.35;;
46815;SDS011;32787;53.316;8.670;2023-05-07T05:04:55;20.95;;;12.68;;
46815;SDS011;32787;53.316;8.670;2023-05-07T05:07:20;18.77;;;12.88;;
46815;SDS011;32787;53.316;8.670;2023-05-07T05:09:46;21.23;;;11.82;;
46815;SDS011;32787;53.316;8.670;2023-05-07T05:12:11;18.65;;;11.93;;
46815;SDS011;32787;53.316;8.670;2023-05-07T05:14:37;21.27;;;12.18;;
46815;SDS011;32787;53.316;8.670;2023-05-07T05:17:03;19.00;;;11.30;;
46815;SDS011;32787;53.316;8.670;2023-05-07T05:19:28;18.15;;;11.60;;
46815;SDS011;32787;53.316;8.670;2023-05-07T05:21:54;20.35;;;12.73;;
46815;SDS011;32787;53.316;8.670;2023-05-07T05:24:20;21.73;;;12.60;;
46815;SDS011;32787;53.316;8.670;2023-05-07T05:26:45;20.50;;;12.20;;
46815;SDS011;32787;53.316;8.670;2023-05-07T05:29:11;19.98;;;12.07;;
46815;SDS011;32787;53.316;8.670;2023-05-07T05:31:36;19.65;;;12.18;;
46815;SDS011;32787;53.316;8.670;2023-05-07T05:34:02;18.88;;;11.50;;
46815;SDS011;32787;53.316;8.670;2023-05-07T05:36:28;18.05;;;11.73;;
46815;SDS011;32787;53.316;8.670;2023-05-07T05:38:55;20.83;;;11.57;;
46815;SDS011;32787;53.316;8.670;2023-05-07T05:41:20;17.33;;;11.25;;
46815;SDS011;32787;53.316;8.670;2023-05-07T05:43:46;19.13;;;12.00;;
46815;SDS011;32787;53.316;8.670;2023-05-07T05:46:12;19.47;;;12.70;;
46815;SDS011;32787;53.316;8.670;2023-05-07T05:48:37;20.88;;;12.90;;
46815;SDS011;32787;53.316;8.670;2023-05-07T05:51:03;18.45;;;12.30;;
46815;SDS011;32787;53.316;8.670;2023-05-07T05:53:28;20.15;;;12.77;;
46815;SDS011;32787;53.316;8.670;2023-05-07T05:55:54;19.52;;;11.25;;
46815;SDS011;32787;53.316;8.670;2023-05-07T05:58:20;19.13;;;10.88;;
46815;SDS011;32787;53.316;8.670;2023-05-07T06:00:46;17.48;;;11.20;;
46815;SDS011;32787;53.316;8.670;2023-05-07T06:03:13;16.05;;;10.65;;
46815;SDS011;32787;53.316;8.670;2023-05-07T06:05:38;17.30;;;11.98;;
46815;SDS011;32787;53.316;8.670;2023-05-07T06:08:04;18.30;;;11.70;;
46815;SDS011;32787;53.316;8.670;2023-05-07T06:10:30;18.35;;;11.77;;
46815;SDS011;32787;53.316;8.670;2023-05-07T06:12:55;17.40;;;12.07;;
46815;SDS011;32787;53.316;8.670;2023-05-07T06:15:21;18.52;;;11.63;;
46815;SDS011;32787;53.316;8.670;2023-05-07T06:17:47;17.33;;;11.15;;
46815;SDS011;32787;53.316;8.670;2023-05-07T06:20:14;19.35;;;11.48;;
46815;SDS011;32787;53.316;8.670;2023-05-07T06:22:39;19.30;;;12.05;;
46815;SDS011;32787;53.316;8.670;2023-05-07T06:25:05;21.35;;;11.65;;
46815;SDS011;32787;53.316;8.670;2023-05-07T06:27:31;20.52;;;12.30;;
46815;SDS011;32787;53.316;8.670;2023-05-07T06:29:57;16.45;;;11.27;;
46815;SDS011;32787;53.316;8.670;2023-05-07T06:32:22;17.55;;;11.43;;
46815;SDS011;32787;53.316;8.670;2023-05-07T06:34:48;16.40;;;10.95;;
46815;SDS011;32787;53.316;8.670;2023-05-07T06:37:13;17.35;;;11.57;;
46815;SDS011;32787;53.316;8.670;2023-05-07T06:39:39;17.02;;;11.85;;
46815;SDS011;32787;53.316;8.670;2023-05-07T06:42:05;15.90;;;11.73;;
46815;SDS011;32787;53.316;8.670;2023-05-07T06:44:31;16.38;;;11.43;;
46815;SDS011;32787;53.316;8.670;2023-05-07T06:46:56;16.75;;;11.68;;
46815;SDS011;32787;53.316;8.670;2023-05-07T06:49:22;15.95;;;11.60;;
46815;SDS011;32787;53.316;8.670;2023-05-07T06:51:48;15.63;;;10.15;;
46815;SDS011;32787;53.316;8.670;2023-05-07T06:54:13;13.98;;;9.35;;
46815;SDS011;32787;53.316;8.670;2023-05-07T06:56:39;16.08;;;10.27;;
46815;SDS011;32787;53.316;8.670;2023-05-07T06:59:05;15.00;;;9.93;;
46815;SDS011;32787;53.316;8.670;2023-05-07T07:01:31;15.65;;;9.98;;
46815;SDS011;32787;53.316;8.670;2023-05-07T07:03:57;15.30;;;9.80;;
46815;SDS011;32787;53.316;8.670;2023-05-07T07:06:23;15.13;;;10.13;;
46815;SDS011;32787;53.316;8.670;2023-05-07T07:08:48;14.38;;;9.93;;
46815;SDS011;32787;53.316;8.670;2023-05-07T07:11:14;12.68;;;8.98;;
46815;SDS011;32787;53.316;8.670;2023-05-07T07:13:40;15.13;;;10.13;;
46815;SDS011;32787;53.316;8.670;2023-05-07T07:16:06;14.88;;;9.05;;
46815;SDS011;32787;53.316;8.670;2023-05-07T07:18:32;14.45;;;9.38;;
46815;SDS011;32787;53.316;8.670;2023-05-07T07:20:57;14.95;;;8.82;;
46815;SDS011;32787;53.316;8.670;2023-05-07T07:23:23;12.98;;;8.65;;
46815;SDS011;32787;53.316;8.670;2023-05-07T07:25:50;14.15;;;9.32;;
46815;SDS011;32787;53.316;8.670;2023-05-07T07:28:15;14.23;;;9.20;;
46815;SDS011;32787;53.316;8.670;2023-05-07T07:30:41;14.35;;;8.85;;
46815;SDS011;32787;53.316;8.670;2023-05-07T07:33:07;12.45;;;8.55;;
46815;SDS011;32787;53.316;8.670;2023-05-07T07:35:33;13.55;;;8.70;;
46815;SDS011;32787;53.316;8.670;2023-05-07T07:37:58;12.25;;;8.48;;
46815;SDS011;32787;53.316;8.670;2023-05-07T07:40:24;12.60;;;7.95;;
46815;SDS011;32787;53.316;8.670;2023-05-07T07:42:50;12.45;;;8.10;;
46815;SDS011;32787;53.316;8.670;2023-05-07T07:45:16;13.48;;;8.65;;
46815;SDS011;32787;53.316;8.670;2023-05-07T07:47:42;14.65;;;9.75;;
46815;SDS011;32787;53.316;8.670;2023-05-07T07:50:08;13.13;;;8.98;;
46815;SDS011;32787;53.316;8.670;2023-05-07T07:52:34;13.63;;;9.23;;
46815;SDS011;32787;53.316;8.670;2023-05-07T07:55:00;14.38;;;8.27;;
46815;SDS011;32787;53.316;8.670;2023-05-07T07:57:25;13.25;;;8.27;;
46815;SDS011;32787;53.316;8.670;2023-05-07T07:59:51;11.60;;;7.60;;
46815;SDS011;32787;53.316;8.670;2023-05-07T08:02:17;12.57;;;7.65;;
46815;SDS011;32787;53.316;8.670;2023-05-07T08:04:43;11.60;;;7.75;;
46815;SDS011;32787;53.316;8.670;2023-05-07T08:07:12;13.07;;;8.07;;
46815;SDS011;32787;53.316;8.670;2023-05-07T08:09:38;11.85;;;7.70;;
46815;SDS011;32787;53.316;8.670;2023-05-07T08:12:05;12.35;;;7.57;;
46815;SDS011;32787;53.316;8.670;2023-05-07T08:14:31;11.73;;;7.90;;
46815;SDS011;32787;53.316;8.670;2023-05-07T08:16:56;10.48;;;7.05;;
46815;SDS011;32787;53.316;8.670;2023-05-07T08:19:22;13.82;;;8.02;;
46815;SDS011;32787;53.316;8.670;2023-05-07T08:21:48;11.35;;;7.78;;
46815;SDS011;32787;53.316;8.670;2023-05-07T08:24:14;12.93;;;7.75;;
46815;SDS011;32787;53.316;8.670;2023-05-07T08:26:40;11.73;;;7.57;;
46815;SDS011;32787;53.316;8.670;2023-05-07T08:29:06;12.88;;;8.48;;
46815;SDS011;32787;53.316;8.670;2023-05-07T08:31:32;11.90;;;7.60;;
46815;SDS011;32787;53.316;8.670;2023-05-07T08:33:58;11.75;;;7.18;;
46815;SDS011;32787;53.316;8.670;2023-05-07T08:36:24;12.25;;;7.65;;
46815;SDS011;32787;53.316;8.670;2023-05-07T08:38:53;12.73;;;7.77;;
46815;SDS011;32787;53.316;8.670;2023-05-07T08:41:19;11.63;;;7.88;;
46815;SDS011;32787;53.316;8.670;2023-05-07T08:43:46;12.30;;;7.57;;
46815;SDS011;32787;53.316;8.670;2023-05-07T08:46:16;12.68;;;8.32;;
46815;SDS011;32787;53.316;8.670;2023-05-07T08:48:49;13.13;;;8.25;;
46815;SDS011;32787;53.316;8.670;2023-05-07T08:51:17;11.23;;;8.23;;
46815;SDS011;32787;53.316;8.670;2023-05-07T08:53:44;11.40;;;8.20;;
46815;SDS011;32787;53.316;8.670;2023-05-07T08:56:11;12.05;;;7.68;;
46815;SDS011;32787;53.316;8.670;2023-05-07T08:58:38;12.90;;;8.55;;
46815;SDS011;32787;53.316;8.670;2023-05-07T09:01:07;12.13;;;7.50;;
46815;SDS011;32787;53.316;8.670;2023-05-07T09:03:34;12.35;;;8.20;;
46815;SDS011;32787;53.316;8.670;2023-05-07T09:06:02;13.90;;;9.43;;
46815;SDS011;32787;53.316;8.670;2023-05-07T09:08:27;14.07;;;8.27;;
46815;SDS011;32787;53.316;8.670;2023-05-07T09:10:53;12.88;;;8.60;;
46815;SDS011;32787;53.316;8.670;2023-05-07T09:13:19;13.38;;;8.68;;
46815;SDS011;32787;53.316;8.670;2023-05-07T09:15:45;12.35;;;8.27;;
46815;SDS011;32787;53.316;8.670;2023-05-07T09:18:11;13.75;;;8.48;;
46815;SDS011;32787;53.316;8.670;2023-05-07T09:20:37;12.65;;;8.73;;
46815;SDS011;32787;53.316;8.670;2023-05-07T09:23:04;15.82;;;10.63;;
46815;SDS011;32787;53.316;8.670;2023-05-07T09:25:30;11.57;;;8.30;;
46815;SDS011;32787;53.316;8.670;2023-05-07T09:27:57;12.40;;;8.48;;
46815;SDS011;32787;53.316;8.670;2023-05-07T09:30:31;12.10;;;8.65;;
46815;SDS011;32787;53.316;8.670;2023-05-07T09:33:00;12.23;;;8.05;;
46815;SDS011;32787;53.316;8.670;2023-05-07T09:35:28;12.95;;;8.82;;
46815;SDS011;32787;53.316;8.670;2023-05-07T09:37:59;12.13;;;8.10;;
46815;SDS011;32787;53.316;8.670;2023-05-07T09:40:27;10.40;;;7.28;;
46815;SDS011;32787;53.316;8.670;2023-05-07T09:42:54;12.27;;;7.68;;
46815;SDS011;32787;53.316;8.670;2023-05-07T09:45:29;13.20;;;7.60;;
46815;SDS011;32787;53.316;8.670;2023-05-07T09:47:55;13.63;;;8.45;;
46815;SDS011;32787;53.316;8.670;2023-05-07T09:50:29;12.27;;;8.00;;
46815;SDS011;32787;53.316;8.670;2023-05-07T09:53:01;11.35;;;7.55;;
46815;SDS011;32787;53.316;8.670;2023-05-07T09:55:28;13.45;;;7.47;;
46815;SDS011;32787;53.316;8.670;2023-05-07T09:57:54;12.23;;;8.32;;
46815;SDS011;32787;53.316;8.670;2023-05-07T10:00:21;13.13;;;8.05;;
46815;SDS011;32787;53.316;8.670;2023-05-07T10:02:48;12.95;;;8.40;;
46815;SDS011;32787;53.316;8.670;2023-05-07T10:05:16;12.75;;;7.53;;
46815;SDS011;32787;53.316;8.670;2023-05-07T10:07:44;12.68;;;8.30;;
46815;SDS011;32787;53.316;8.670;2023-05-07T10:10:11;13.30;;;8.55;;
46815;SDS011;32787;53.316;8.670;2023-05-07T10:12:37;11.32;;;8.23;;
46815;SDS011;32787;53.316;8.670;2023-05-07T10:15:05;11.50;;;7.93;;
46815;SDS011;32787;53.316;8.670;2023-05-07T10:17:36;11.75;;;7.32;;
46815;SDS011;32787;53.316;8.670;2023-05-07T10:20:03;13.88;;;8.35;;
46815;SDS011;32787;53.316;8.670;2023-05-07T10:22:37;12.98;;;7.38;;
46815;SDS011;32787;53.316;8.670;2023-05-07T10:25:06;11.50;;;7.03;;
46815;SDS011;32787;53.316;8.670;2023-05-07T10:27:39;12.25;;;7.97;;
46815;SDS011;32787;53.316;8.670;2023-05-07T10:30:18;11.25;;;7.38;;
46815;SDS011;32787;53.316;8.670;2023-05-07T10:33:10;11.73;;;7.90;;
46815;SDS011;32787;53.316;8.670;2023-05-07T10:35:39;11.77;;;7.90;;
46815;SDS011;32787;53.316;8.670;2023-05-07T10:38:07;12.82;;;7.03;;
46815;SDS011;32787;53.316;8.670;2023-05-07T10:40:34;12.93;;;7.95;;
46815;SDS011;32787;53.316;8.670;2023-05-07T10:43:01;11.73;;;7.85;;
46815;SDS011;32787;53.316;8.670;2023-05-07T10:45:29;11.43;;;7.53;;
46815;SDS011;32787;53.316;8.670;2023-05-07T10:48:05;13.65;;;8.10;;
46815;SDS011;32787;53.316;8.670;2023-05-07T10:50:32;11.77;;;8.10;;
46815;SDS011;32787;53.316;8.670;2023-05-07T10:55:46;14.80;;;8.98;;
46815;SDS011;32787;53.316;8.670;2023-05-07T10:58:23;12.80;;;8.07;;
46815;SDS011;32787;53.316;8.670;2023-05-07T11:00:55;12.75;;;8.20;;
46815;SDS011;32787;53.316;8.670;2023-05-07T11:03:25;14.32;;;8.50;;
46815;SDS011;32787;53.316;8.670;2023-05-07T11:06:08;12.25;;;7.95;;
46815;SDS011;32787;53.316;8.670;2023-05-07T11:08:56;11.65;;;7.88;;
46815;SDS011;32787;53.316;8.670;2023-05-07T11:14:09;14.75;;;8.23;;
46815;SDS011;32787;53.316;8.670;2023-05-07T11:16:34;11.88;;;8.07;;
46815;SDS011;32787;53.316;8.670;2023-05-07T11:19:01;12.93;;;9.27;;
46815;SDS011;32787;53.316;8.670;2023-05-07T11:24:03;12.07;;;7.85;;
46815;SDS011;32787;53.316;8.670;2023-05-07T11:26:31;13.20;;;7.75;;
46815;SDS011;32787;53.316;8.670;2023-05-07T11:29:14;12.52;;;7.72;;
46815;SDS011;32787;53.316;8.670;2023-05-07T11:31:40;12.48;;;8.43;;
46815;SDS011;32787;53.316;8.670;2023-05-07T11:34:06;13.38;;;8.20;;
46815;SDS011;32787;53.316;8.670;2023-05-07T11:36:33;11.43;;;7.47;;
46815;SDS011;32787;53.316;8.670;2023-05-07T11:38:58;11.13;;;7.55;;
46815;SDS011;32787;53.316;8.670;2023-05-07T11:41:34;12.35;;;8.32;;
46815;SDS011;32787;53.316;8.670;2023-05-07T11:44:01;12.45;;;8.15;;
46815;SDS011;32787;53.316;8.670;2023-05-07T11:46:27;13.98;;;8.43;;
46815;SDS011;32787;53.316;8.670;2023-05-07T11:48:53;12.23;;;8.10;;
46815;SDS011;32787;53.316;8.670;2023-05-07T11:51:20;12.00;;;7.57;;
46815;SDS011;32787;53.316;8.670;2023-05-07T11:53:48;11.30;;;8.18;;
46815;SDS011;32787;53.316;8.670;2023-05-07T11:56:14;14.13;;;7.15;;
46815;SDS011;32787;53.316;8.670;2023-05-07T11:58:41;11.98;;;7.63;;
46815;SDS011;32787;53.316;8.670;2023-05-07T12:01:08;11.93;;;6.95;;
46815;SDS011;32787;53.316;8.670;2023-05-07T12:03:35;14.40;;;7.80;;
46815;SDS011;32787;53.316;8.670;2023-05-07T12:06:07;11.20;;;7.32;;
46815;SDS011;32787;53.316;8.670;2023-05-07T12:08:36;10.60;;;7.38;;
46815;SDS011;32787;53.316;8.670;2023-05-07T12:11:03;10.33;;;7.07;;
46815;SDS011;32787;53.316;8.670;2023-05-07T12:13:31;10.15;;;6.82;;
46815;SDS011;32787;53.316;8.670;2023-05-07T12:15:57;10.15;;;6.68;;
46815;SDS011;32787;53.316;8.670;2023-05-07T12:18:23;10.00;;;6.90;;
46815;SDS011;32787;53.316;8.670;2023-05-07T12:20:49;9.05;;;6.07;;
46815;SDS011;32787;53.316;8.670;2023-05-07T12:23:16;9.88;;;6.50;;
46815;SDS011;32787;53.316;8.670;2023-05-07T12:25:42;10.35;;;6.07;;
46815;SDS011;32787;53.316;8.670;2023-05-07T12:28:18;9.80;;;6.25;;
46815;SDS011;32787;53.316;8.670;2023-05-07T12:30:45;11.23;;;5.95;;
46815;SDS011;32787;53.316;8.670;2023-05-07T12:33:12;9.88;;;6.15;;
46815;SDS011;32787;53.316;8.670;2023-05-07T12:35:41;10.83;;;6.20;;
46815;SDS011;32787;53.316;8.670;2023-05-07T12:38:12;9.52;;;5.47;;
46815;SDS011;32787;53.316;8.670;2023-05-07T12:40:42;11.23;;;6.72;;
46815;SDS011;32787;53.316;8.670;2023-05-07T12:43:18;10.70;;;6.45;;
46815;SDS011;32787;53.316;8.670;2023-05-07T12:45:46;8.27;;;5.70;;
46815;SDS011;32787;53.316;8.670;2023-05-07T12:48:13;10.50;;;6.22;;
46815;SDS011;32787;53.316;8.670;2023-05-07T12:50:39;9.93;;;6.05;;
46815;SDS011;32787;53.316;8.670;2023-05-07T12:53:05;10.05;;;6.22;;
46815;SDS011;32787;53.316;8.670;2023-05-07T12:55:43;8.77;;;6.00;;
46815;SDS011;32787;53.316;8.670;2023-05-07T12:58:14;10.43;;;6.13;;
46815;SDS011;32787;53.316;8.670;2023-05-07T13:00:47;10.13;;;5.90;;
46815;SDS011;32787;53.316;8.670;2023-05-07T13:03:25;10.20;;;6.05;;
46815;SDS011;32787;53.316;8.670;2023-05-07T13:05:53;9.50;;;6.07;;
46815;SDS011;32787;53.316;8.670;2023-05-07T13:08:28;8.57;;;5.57;;
46815;SDS011;32787;53.316;8.670;2023-05-07T13:11:00;9.75;;;6.20;;
46815;SDS011;32787;53.316;8.670;2023-05-07T13:13:29;9.75;;;6.05;;
46815;SDS011;32787;53.316;8.670;2023-05-07T13:15:55;9.75;;;5.97;;
46815;SDS011;32787;53.316;8.670;2023-05-07T13:18:21;9.52;;;6.05;;
46815;SDS011;32787;53.316;8.670;2023-05-07T13:20:47;12.30;;;5.13;;
46815;SDS011;32787;53.316;8.670;2023-05-07T13:23:12;8.10;;;5.65;;
46815;SDS011;32787;53.316;8.670;2023-05-07T13:25:38;7.20;;;4.60;;
46815;SDS011;32787;53.316;8.670;2023-05-07T13:28:03;8.77;;;5.32;;
46815;SDS011;32787;53.316;8.670;2023-05-07T13:30:29;7.95;;;5.13;;
46815;SDS011;32787;53.316;8.670;2023-05-07T13:32:55;7.95;;;5.38;;
46815;SDS011;32787;53.316;8.670;2023-05-07T13:35:21;8.65;;;5.22;;
46815;SDS011;32787;53.316;8.670;2023-05-07T13:37:47;8.07;;;5.38;;
46815;SDS011;32787;53.316;8.670;2023-05-07T13:42:42;6.93;;;4.60;;
46815;SDS011;32787;53.316;8.670;2023-05-07T13:45:08;6.93;;;4.00;;
46815;SDS011;32787;53.316;8.670;2023-05-07T13:47:34;8.95;;;4.47;;
46815;SDS011;32787;53.316;8.670;2023-05-07T13:50:00;6.63;;;4.10;;
46815;SDS011;32787;53.316;8.670;2023-05-07T13:52:25;7.45;;;3.92;;
46815;SDS011;32787;53.316;8.670;2023-05-07T13:54:51;7.32;;;4.40;;
46815;SDS011;32787;53.316;8.670;2023-05-07T13:57:17;6.80;;;4.22;;
46815;SDS011;32787;53.316;8.670;2023-05-07T13:59:43;8.27;;;4.90;;
46815;SDS011;32787;53.316;8.670;2023-05-07T14:02:09;7.10;;;4.30;;
46815;SDS011;32787;53.316;8.670;2023-05-07T14:04:35;8.82;;;4.45;;
46815;SDS011;32787;53.316;8.670;2023-05-07T14:07:00;6.38;;;3.80;;
46815;SDS011;32787;53.316;8.670;2023-05-07T14:09:26;7.00;;;4.30;;
46815;SDS011;32787;53.316;8.670;2023-05-07T14:11:51;7.63;;;4.10;;
46815;SDS011;32787;53.316;8.670;2023-05-07T14:14:17;7.88;;;4.30;;
46815;SDS011;32787;53.316;8.670;2023-05-07T14:16:43;7.60;;;3.72;;
46815;SDS011;32787;53.316;8.670;2023-05-07T14:19:10;7.00;;;4.65;;
46815;SDS011;32787;53.316;8.670;2023-05-07T14:21:38;8.40;;;4.50;;
46815;SDS011;32787;53.316;8.670;2023-05-07T14:24:05;8.73;;;4.05;;
46815;SDS011;32787;53.316;8.670;2023-05-07T14:26:32;8.27;;;4.57;;
46815;SDS011;32787;53.316;8.670;2023-05-07T14:28:58;7.35;;;4.10;;
46815;SDS011;32787;53.316;8.670;2023-05-07T14:31:24;9.43;;;4.90;;
46815;SDS011;32787;53.316;8.670;2023-05-07T14:33:50;8.00;;;4.70;;
46815;SDS011;32787;53.316;8.670;2023-05-07T14:36:17;6.70;;;3.42;;
46815;SDS011;32787;53.316;8.670;2023-05-07T14:38:45;8.55;;;4.57;;